createdAt,value
2019-05-30T00:00:20.371Z,101830.37
2019-05-30T00:01:04.217Z,101827.66
2019-05-30T00:01:47.941Z,101826.71
2019-05-30T00:02:31.509Z,101828.47
2019-05-30T00:03:15.443Z,101830.30
2019-05-30T00:03:58.926Z,101832.41
2019-05-30T00:04:43.173Z,101832.41
2019-05-30T00:05:26.602Z,101835.12
2019-05-30T00:06:09.931Z,101828.47
2019-05-30T00:06:54.324Z,101831.53
2019-05-30T00:07:37.926Z,101826.71
2019-05-30T00:08:21.288Z,101824.48
2019-05-30T00:09:06.472Z,101830.77
2019-05-30T00:09:50.748Z,101830.77
2019-05-30T00:10:34.282Z,101827.66
2019-05-30T00:11:17.392Z,101821.77
2019-05-30T00:12:02.954Z,101822.73
2019-05-30T00:12:47.118Z,101821.84
2019-05-30T00:13:30.094Z,101821.84
2019-05-30T00:14:15.452Z,101821.00
2019-05-30T00:14:58.809Z,101822.36
2019-05-30T00:15:41.649Z,101818.78
2019-05-30T00:16:25.819Z,101821.00
2019-05-30T00:17:09.610Z,101821.00
2019-05-30T00:17:52.659Z,101822.84
2019-05-30T00:18:36.240Z,101820.13
2019-05-30T00:19:19.705Z,101818.78
2019-05-30T00:20:03.437Z,101818.78
2019-05-30T00:20:47.432Z,101818.38
2019-05-30T00:21:31.162Z,101817.02
2019-05-30T00:22:14.890Z,101817.02
2019-05-30T00:22:58.876Z,101819.73
2019-05-30T00:23:43.206Z,101819.73
2019-05-30T00:24:26.106Z,101814.31
2019-05-30T00:25:09.559Z,101819.73
2019-05-30T00:25:53.311Z,101816.14
2019-05-30T00:26:36.423Z,101817.02
2019-05-30T00:27:20.230Z,101812.56
2019-05-30T00:28:05.153Z,101815.27
2019-05-30T00:28:48.029Z,101812.56
2019-05-30T00:29:31.877Z,101819.80
2019-05-30T00:30:24.351Z,101813.91
2019-05-30T00:31:00.448Z,101815.67
2019-05-30T00:31:43.919Z,101814.80
2019-05-30T00:32:27.628Z,101821.08
2019-05-30T00:33:10.529Z,101820.20
2019-05-30T00:33:55.518Z,101813.91
2019-05-30T00:34:39.459Z,101817.02
2019-05-30T00:35:22.700Z,101811.61
2019-05-30T00:36:06.662Z,101813.04
2019-05-30T00:36:50.500Z,101808.98
2019-05-30T00:37:33.710Z,101814.87
2019-05-30T00:38:17.220Z,101810.81
2019-05-30T00:39:01.911Z,101808.21
2019-05-30T00:39:44.445Z,101811.31
2019-05-30T00:40:28.394Z,101809.09
2019-05-30T00:41:12.228Z,101806.38
2019-05-30T00:41:56.025Z,101807.34
2019-05-30T00:42:39.936Z,101809.45
2019-05-30T00:43:23.463Z,101813.15
2019-05-30T00:44:06.396Z,101813.15
2019-05-30T00:44:50.380Z,101815.85
2019-05-30T00:45:33.981Z,101806.38
2019-05-30T00:46:16.873Z,101810.44
2019-05-30T00:47:00.651Z,101813.15
2019-05-30T00:47:44.114Z,101807.34
2019-05-30T00:48:27.645Z,101805.03
2019-05-30T00:49:11.097Z,101807.26
2019-05-30T00:49:54.612Z,101805.58
2019-05-30T00:50:37.535Z,101802.40
2019-05-30T00:51:21.201Z,101800.17
2019-05-30T00:52:05.232Z,101801.05
2019-05-30T00:52:48.119Z,101803.75
2019-05-30T00:53:32.087Z,101807.81
2019-05-30T00:54:15.537Z,101800.65
2019-05-30T00:54:58.438Z,101805.22
2019-05-30T00:55:42.038Z,101802.51
2019-05-30T00:56:25.613Z,101805.22
2019-05-30T00:57:09.047Z,101798.05
2019-05-30T00:57:53.152Z,101802.11
2019-05-30T00:58:36.875Z,101802.11
2019-05-30T00:59:19.992Z,101800.75
2019-05-30T01:00:05.052Z,101802.58
2019-05-30T01:00:48.529Z,101806.16
2019-05-30T01:01:31.585Z,101807.52
2019-05-30T01:02:15.435Z,101800.75
2019-05-30T01:03:01.657Z,101807.92
2019-05-30T01:03:44.200Z,101798.45
2019-05-30T01:04:27.799Z,101800.65
2019-05-30T01:05:11.814Z,101796.11
2019-05-30T01:05:55.029Z,101803.86
2019-05-30T01:06:38.243Z,101796.22
2019-05-30T01:07:21.974Z,101799.80
2019-05-30T01:08:05.241Z,101798.92
2019-05-30T01:08:48.997Z,101796.22
2019-05-30T01:09:32.652Z,101800.28
2019-05-30T01:10:15.710Z,101787.23
2019-05-30T01:10:59.060Z,101792.72
2019-05-30T01:11:42.795Z,101789.53
2019-05-30T01:12:25.831Z,101785.47
2019-05-30T01:13:09.445Z,101784.12
2019-05-30T01:13:53.211Z,101789.05
2019-05-30T01:14:36.405Z,101787.30
2019-05-30T01:15:20.503Z,101783.72
2019-05-30T01:16:05.503Z,101785.47
2019-05-30T01:16:48.707Z,101786.83
2019-05-30T01:17:32.182Z,101783.24
2019-05-30T01:18:15.620Z,101782.77
2019-05-30T01:18:59.075Z,101780.06
2019-05-30T01:19:42.652Z,101782.77
2019-05-30T01:20:26.539Z,101779.19
2019-05-30T01:21:09.389Z,101780.06
2019-05-30T01:21:52.834Z,101778.70
2019-05-30T01:22:38.298Z,101780.06
2019-05-30T01:23:21.296Z,101780.06
2019-05-30T01:24:05.622Z,101779.19
2019-05-30T01:24:49.167Z,101780.14
2019-05-30T01:25:32.027Z,101776.95
2019-05-30T01:26:15.729Z,101779.19
2019-05-30T01:26:59.303Z,101779.30
2019-05-30T01:27:42.143Z,101772.42
2019-05-30T01:28:25.712Z,101781.48
2019-05-30T01:29:09.273Z,101774.73
2019-05-30T01:29:52.193Z,101776.59
2019-05-30T01:30:35.894Z,101772.53
2019-05-30T01:31:19.609Z,101775.70
2019-05-30T01:32:05.532Z,101779.30
2019-05-30T01:32:48.993Z,101777.06
2019-05-30T01:33:32.377Z,101784.70
2019-05-30T01:34:15.105Z,101778.89
2019-05-30T01:34:59.858Z,101777.14
2019-05-30T01:35:43.438Z,101775.31
2019-05-30T01:36:26.967Z,101778.89
2019-05-30T01:37:11.171Z,101777.54
2019-05-30T01:37:54.793Z,101776.19
2019-05-30T01:38:37.904Z,101774.83
2019-05-30T01:39:21.394Z,101777.54
2019-05-30T01:40:06.531Z,101773.08
2019-05-30T01:40:49.765Z,101777.14
2019-05-30T01:41:33.485Z,101773.48
2019-05-30T01:42:17.139Z,101774.83
2019-05-30T01:43:00.095Z,101771.25
2019-05-30T01:43:43.773Z,101770.30
2019-05-30T01:44:28.024Z,101769.90
2019-05-30T01:45:11.177Z,101766.31
2019-05-30T01:45:54.438Z,101765.84
2019-05-30T01:46:38.130Z,101765.84
2019-05-30T01:47:20.781Z,101768.07
2019-05-30T01:48:04.692Z,101765.77
2019-05-30T01:48:48.461Z,101768.47
2019-05-30T01:49:31.657Z,101762.66
2019-05-30T01:50:17.281Z,101759.95
2019-05-30T01:51:00.965Z,101759.00
2019-05-30T01:51:45.119Z,101756.30
2019-05-30T01:52:28.683Z,101758.59
2019-05-30T01:53:12.531Z,101757.25
2019-05-30T01:53:55.316Z,101759.95
2019-05-30T01:54:38.964Z,101756.77
2019-05-30T01:55:22.789Z,101753.66
2019-05-30T01:56:06.815Z,101755.02
2019-05-30T01:56:50.220Z,101753.19
2019-05-30T01:57:33.889Z,101760.83
2019-05-30T01:58:17.330Z,101754.14
2019-05-30T01:59:01.114Z,101755.97
2019-05-30T01:59:44.927Z,101755.02
2019-05-30T02:00:38.936Z,101749.69
2019-05-30T02:01:25.085Z,101752.39
2019-05-30T02:02:09.201Z,101746.50
2019-05-30T02:02:52.458Z,101752.39
2019-05-30T02:03:35.784Z,101743.31
2019-05-30T02:04:19.088Z,101748.25
2019-05-30T02:05:03.015Z,101741.56
2019-05-30T02:05:46.541Z,101748.73
2019-05-30T02:06:30.593Z,101748.73
2019-05-30T02:07:14.064Z,101742.92
2019-05-30T02:07:59.017Z,101741.56
2019-05-30T02:08:42.835Z,101741.56
2019-05-30T02:09:25.717Z,101744.27
2019-05-30T02:10:10.037Z,101743.80
2019-05-30T02:10:54.054Z,101740.21
2019-05-30T02:11:37.139Z,101742.55
2019-05-30T02:12:21.278Z,101742.05
2019-05-30T02:13:05.661Z,101740.32
2019-05-30T02:13:48.973Z,101743.80
2019-05-30T02:14:32.303Z,101741.56
2019-05-30T02:15:16.034Z,101738.86
2019-05-30T02:15:59.610Z,101741.09
2019-05-30T02:16:43.054Z,101737.51
2019-05-30T02:17:26.718Z,101738.86
2019-05-30T02:18:10.131Z,101740.14
2019-05-30T02:18:53.626Z,101744.67
2019-05-30T02:19:36.959Z,101745.07
2019-05-30T02:20:20.652Z,101736.95
2019-05-30T02:21:04.247Z,101735.60
2019-05-30T02:21:48.108Z,101735.60
2019-05-30T02:22:31.150Z,101735.60
2019-05-30T02:23:15.056Z,101734.64
2019-05-30T02:23:58.214Z,101731.06
2019-05-30T02:24:41.215Z,101727.00
2019-05-30T02:25:25.292Z,101731.54
2019-05-30T02:26:10.575Z,101732.41
2019-05-30T02:26:53.634Z,101727.88
2019-05-30T02:27:37.517Z,101733.77
2019-05-30T02:28:21.230Z,101727.48
2019-05-30T02:29:04.244Z,101729.78
2019-05-30T02:29:47.950Z,101735.20
2019-05-30T02:30:31.942Z,101729.86
2019-05-30T02:31:14.861Z,101732.50
2019-05-30T02:31:58.460Z,101733.84
2019-05-30T02:32:41.926Z,101736.16
2019-05-30T02:33:24.778Z,101733.45
2019-05-30T02:34:10.147Z,101733.45
2019-05-30T02:34:53.295Z,101731.73
2019-05-30T02:35:36.162Z,101738.86
2019-05-30T02:36:19.672Z,101732.58
2019-05-30T02:37:05.344Z,101733.92
2019-05-30T02:37:47.838Z,101735.67
2019-05-30T02:38:31.268Z,101731.73
2019-05-30T02:39:15.005Z,101734.33
2019-05-30T02:40:00.959Z,101730.74
2019-05-30T02:40:43.184Z,101736.16
2019-05-30T02:41:26.792Z,101736.16
2019-05-30T02:42:11.510Z,101737.51
2019-05-30T02:42:54.723Z,101736.16
2019-05-30T02:43:38.737Z,101745.25
2019-05-30T02:44:21.878Z,101740.32
2019-05-30T02:45:10.709Z,101738.57
2019-05-30T02:45:54.316Z,101739.45
2019-05-30T02:46:37.655Z,101744.38
2019-05-30T02:47:22.515Z,101739.05
2019-05-30T02:48:07.358Z,101740.40
2019-05-30T02:48:58.624Z,101743.10
2019-05-30T02:49:36.445Z,101741.75
2019-05-30T02:50:19.916Z,101738.09
2019-05-30T02:51:03.380Z,101738.09
2019-05-30T02:51:47.080Z,101740.80
2019-05-30T02:52:31.862Z,101743.10
2019-05-30T02:53:15.087Z,101741.75
2019-05-30T02:53:58.584Z,101738.17
2019-05-30T02:54:42.045Z,101739.05
2019-05-30T02:55:25.049Z,101737.69
2019-05-30T02:56:10.260Z,101732.76
2019-05-30T02:56:54.073Z,101741.35
2019-05-30T02:57:37.109Z,101741.75
2019-05-30T02:58:20.732Z,101739.05
2019-05-30T02:59:05.937Z,101735.47
2019-05-30T02:59:48.508Z,101740.80
2019-05-30T03:00:34.968Z,101744.86
2019-05-30T03:01:18.761Z,101737.14
2019-05-30T03:02:05.257Z,101740.80
2019-05-30T03:02:47.976Z,101739.45
2019-05-30T03:03:31.436Z,101739.05
2019-05-30T03:04:14.840Z,101738.09
2019-05-30T03:04:58.562Z,101735.94
2019-05-30T03:05:42.234Z,101739.52
2019-05-30T03:06:25.354Z,101734.22
2019-05-30T03:07:10.698Z,101733.83
2019-05-30T03:07:54.198Z,101730.53
2019-05-30T03:08:37.445Z,101734.22
2019-05-30T03:09:21.366Z,101736.42
2019-05-30T03:10:09.446Z,101738.28
2019-05-30T03:10:52.778Z,101734.59
2019-05-30T03:11:36.453Z,101736.42
2019-05-30T03:12:20.442Z,101743.69
2019-05-30T03:13:04.320Z,101736.53
2019-05-30T03:13:50.324Z,101736.53
2019-05-30T03:14:35.041Z,101734.22
2019-05-30T03:15:17.778Z,101736.53
2019-05-30T03:16:02.214Z,101737.41
2019-05-30T03:16:46.229Z,101735.58
2019-05-30T03:17:29.462Z,101744.06
2019-05-30T03:18:14.943Z,101728.30
2019-05-30T03:18:58.059Z,101735.94
2019-05-30T03:19:40.960Z,101729.29
2019-05-30T03:20:24.586Z,101732.36
2019-05-30T03:21:10.295Z,101734.59
2019-05-30T03:21:52.996Z,101730.16
2019-05-30T03:22:36.727Z,101726.11
2019-05-30T03:23:20.537Z,101727.94
2019-05-30T03:24:05.007Z,101735.06
2019-05-30T03:24:49.179Z,101740.98
2019-05-30T03:25:32.651Z,101733.83
2019-05-30T03:26:16.352Z,101730.23
2019-05-30T03:27:02.469Z,101731.59
2019-05-30T03:27:46.197Z,101732.55
2019-05-30T03:28:29.216Z,101735.73
2019-05-30T03:29:14.336Z,101731.67
2019-05-30T03:29:58.784Z,101738.36
2019-05-30T03:30:42.183Z,101737.95
2019-05-30T03:31:29.314Z,101733.02
2019-05-30T03:32:58.324Z,101732.07
2019-05-30T03:33:12.876Z,101735.25
2019-05-30T03:33:42.754Z,101729.44
2019-05-30T03:34:28.790Z,101735.73
2019-05-30T03:35:24.020Z,101737.08
2019-05-30T03:35:56.768Z,101727.61
2019-05-30T03:36:40.514Z,101729.95
2019-05-30T03:37:29.415Z,101729.55
2019-05-30T03:38:12.441Z,101732.66
2019-05-30T03:38:55.406Z,101737.19
2019-05-30T03:39:38.347Z,101731.38
2019-05-30T03:40:23.490Z,101729.15
2019-05-30T03:41:09.096Z,101731.38
2019-05-30T03:41:52.027Z,101728.27
2019-05-30T03:42:35.707Z,101730.50
2019-05-30T03:43:19.181Z,101728.67
2019-05-30T03:44:03.846Z,101726.92
2019-05-30T03:44:47.599Z,101733.21
2019-05-30T03:45:31.069Z,101727.80
2019-05-30T03:46:22.942Z,101730.10
2019-05-30T03:47:08.636Z,101730.91
2019-05-30T03:47:54.216Z,101727.80
2019-05-30T03:48:36.897Z,101729.55
2019-05-30T03:49:23.907Z,101730.91
2019-05-30T03:50:09.785Z,101730.43
2019-05-30T03:50:52.999Z,101728.97
2019-05-30T03:51:36.823Z,101732.47
2019-05-30T03:52:20.635Z,101728.41
2019-05-30T03:53:04.631Z,101730.16
2019-05-30T03:53:48.979Z,101731.88
2019-05-30T03:54:32.944Z,101729.18
2019-05-30T03:55:16.797Z,101732.36
2019-05-30T03:56:04.544Z,101726.95
2019-05-30T03:56:54.612Z,101727.45
2019-05-30T03:57:57.225Z,101731.00
2019-05-30T03:58:49.503Z,101729.18
2019-05-30T03:59:38.856Z,101730.16
2019-05-30T04:00:59.282Z,101727.94
2019-05-30T04:02:18.966Z,101731.99
2019-05-30T04:03:06.664Z,101731.30
2019-05-30T04:03:56.763Z,101735.91
2019-05-30T04:04:49.095Z,101734.67
2019-05-30T04:05:35.996Z,101733.39
2019-05-30T04:06:28.855Z,101728.38
2019-05-30T04:07:15.947Z,101729.73
2019-05-30T04:07:59.494Z,101729.81
2019-05-30T04:08:43.031Z,101730.29
2019-05-30T04:09:26.016Z,101732.44
2019-05-30T04:10:11.433Z,101730.10
2019-05-30T04:10:55.654Z,101726.62
2019-05-30T04:11:44.570Z,101730.61
2019-05-30T04:12:34.105Z,101734.16
2019-05-30T04:13:25.373Z,101734.16
2019-05-30T04:14:10.907Z,101729.15
2019-05-30T04:14:56.379Z,101736.87
2019-05-30T04:15:38.969Z,101738.22
2019-05-30T04:16:22.637Z,101732.92
2019-05-30T04:17:08.144Z,101732.04
2019-05-30T04:17:51.599Z,101733.32
2019-05-30T04:18:35.244Z,101736.39
2019-05-30T04:19:20.049Z,101735.91
2019-05-30T04:20:05.031Z,101734.67
2019-05-30T04:20:48.297Z,101738.63
2019-05-30T04:21:32.396Z,101736.87
2019-05-30T04:22:15.610Z,101740.38
2019-05-30T04:22:59.261Z,101730.91
2019-05-30T04:23:43.119Z,101734.96
2019-05-30T04:24:26.378Z,101734.96
2019-05-30T04:25:10.209Z,101732.66
2019-05-30T04:25:53.682Z,101735.36
2019-05-30T04:26:37.019Z,101738.55
2019-05-30T04:27:20.708Z,101742.13
2019-05-30T04:28:04.145Z,101738.44
2019-05-30T04:28:47.022Z,101736.72
2019-05-30T04:29:30.722Z,101737.08
2019-05-30T04:30:16.330Z,101734.77
2019-05-30T04:30:59.432Z,101736.53
2019-05-30T04:31:43.279Z,101737.41
2019-05-30T04:32:26.919Z,101737.88
2019-05-30T04:33:21.755Z,101737.48
2019-05-30T04:33:55.380Z,101738.36
2019-05-30T04:34:39.135Z,101735.66
2019-05-30T04:35:22.389Z,101739.23
2019-05-30T04:36:06.154Z,101742.81
2019-05-30T04:36:53.188Z,101737.88
2019-05-30T04:37:34.657Z,101741.94
2019-05-30T04:38:19.554Z,101736.13
2019-05-30T04:39:03.344Z,101737.48
2019-05-30T04:39:46.227Z,101740.11
2019-05-30T04:40:29.781Z,101740.98
2019-05-30T04:41:13.627Z,101733.71
2019-05-30T04:41:58.431Z,101734.22
2019-05-30T04:42:41.930Z,101740.40
2019-05-30T04:43:25.931Z,101731.41
2019-05-30T04:44:09.901Z,101737.69
2019-05-30T04:44:53.640Z,101736.34
2019-05-30T04:45:37.429Z,101739.05
2019-05-30T04:46:21.787Z,101741.20
2019-05-30T04:47:05.587Z,101736.27
2019-05-30T04:47:49.264Z,101729.39
2019-05-30T04:48:32.336Z,101741.97
2019-05-30T04:49:16.914Z,101732.89
2019-05-30T04:50:01.201Z,101739.66
2019-05-30T04:50:44.560Z,101736.95
2019-05-30T04:51:28.006Z,101745.07
2019-05-30T04:52:15.752Z,101741.89
2019-05-30T04:52:56.066Z,101738.70
2019-05-30T04:53:39.274Z,101740.91
2019-05-30T04:54:22.848Z,101743.13
2019-05-30T04:55:08.189Z,101730.48
2019-05-30T04:55:51.812Z,101739.39
2019-05-30T04:56:35.878Z,101735.34
2019-05-30T04:57:25.174Z,101741.98
2019-05-30T04:58:04.647Z,101738.92
2019-05-30T04:58:48.412Z,101737.16
2019-05-30T04:59:31.566Z,101738.92
2019-05-30T05:00:17.112Z,101733.11
2019-05-30T05:01:00.727Z,101737.56
2019-05-30T05:01:43.652Z,101733.11
2019-05-30T05:02:27.203Z,101743.93
2019-05-30T05:03:11.392Z,101735.34
2019-05-30T05:03:55.070Z,101735.34
2019-05-30T05:04:38.566Z,101730.40
2019-05-30T05:05:26.312Z,101736.29
2019-05-30T05:06:07.038Z,101739.47
2019-05-30T05:06:50.789Z,101735.02
2019-05-30T05:07:34.131Z,101732.30
2019-05-30T05:08:17.901Z,101735.02
2019-05-30T05:09:01.610Z,101731.94
2019-05-30T05:09:45.610Z,101736.48
2019-05-30T05:10:29.136Z,101738.70
2019-05-30T05:11:16.528Z,101735.60
2019-05-30T05:11:58.248Z,101737.83
2019-05-30T05:12:41.607Z,101734.72
2019-05-30T05:13:25.012Z,101737.03
2019-05-30T05:14:08.365Z,101735.20
2019-05-30T05:14:51.310Z,101733.45
2019-05-30T05:15:34.994Z,101739.84
2019-05-30T05:16:25.983Z,101736.16
2019-05-30T05:17:03.265Z,101735.78
2019-05-30T05:17:47.314Z,101739.45
2019-05-30T05:18:31.143Z,101738.09
2019-05-30T05:19:14.918Z,101734.98
2019-05-30T05:19:58.491Z,101740.40
2019-05-30T05:20:41.938Z,101744.06
2019-05-30T05:21:25.409Z,101739.63
2019-05-30T05:22:09.324Z,101734.70
2019-05-30T05:22:53.036Z,101733.83
2019-05-30T05:23:36.310Z,101735.66
2019-05-30T05:24:19.492Z,101735.17
2019-05-30T05:25:03.485Z,101737.88
2019-05-30T05:25:59.823Z,101733.42
2019-05-30T05:26:32.652Z,101735.73
2019-05-30T05:27:17.578Z,101733.02
2019-05-30T05:28:00.431Z,101738.44
2019-05-30T05:28:44.173Z,101734.01
2019-05-30T05:29:27.794Z,101732.66
2019-05-30T05:30:11.116Z,101734.01
2019-05-30T05:30:54.690Z,101730.80
2019-05-30T05:31:38.677Z,101732.25
2019-05-30T05:32:22.645Z,101734.96
2019-05-30T05:33:06.727Z,101732.25
2019-05-30T05:33:56.599Z,101733.21
2019-05-30T05:34:36.014Z,101730.98
2019-05-30T05:35:20.894Z,101732.33
2019-05-30T05:36:04.201Z,101738.63
2019-05-30T05:36:47.210Z,101731.45
2019-05-30T05:37:30.779Z,101728.75
2019-05-30T05:38:16.122Z,101731.38
2019-05-30T05:38:59.347Z,101731.38
2019-05-30T05:39:42.998Z,101730.50
2019-05-30T05:40:26.315Z,101728.67
2019-05-30T05:41:09.157Z,101727.32
2019-05-30T05:41:52.840Z,101731.45
2019-05-30T05:42:36.515Z,101730.50
2019-05-30T05:43:20.283Z,101726.05
2019-05-30T05:44:04.390Z,101730.10
2019-05-30T05:44:48.525Z,101724.69
2019-05-30T05:45:32.118Z,101734.16
2019-05-30T05:46:16.438Z,101728.27
2019-05-30T05:47:00.215Z,101727.39
2019-05-30T05:47:43.847Z,101732.80
2019-05-30T05:48:27.344Z,101728.75
2019-05-30T05:49:11.114Z,101724.69
2019-05-30T05:49:54.419Z,101728.75
2019-05-30T05:50:38.218Z,101726.92
2019-05-30T05:51:22.763Z,101732.92
2019-05-30T05:52:05.840Z,101730.69
2019-05-30T05:52:49.305Z,101727.98
2019-05-30T05:53:33.354Z,101724.41
2019-05-30T05:54:16.830Z,101728.54
2019-05-30T05:55:00.402Z,101730.77
2019-05-30T05:55:43.928Z,101724.98
2019-05-30T05:56:27.032Z,101737.05
2019-05-30T05:57:10.505Z,101734.34
2019-05-30T05:57:54.303Z,101729.52
2019-05-30T05:58:37.820Z,101730.88
2019-05-30T05:59:21.280Z,101736.77
2019-05-30T06:00:07.547Z,101734.53
2019-05-30T06:00:50.443Z,101731.91
2019-05-30T06:01:34.101Z,101735.48
2019-05-30T06:02:19.319Z,101736.36
2019-05-30T06:03:02.190Z,101740.42
2019-05-30T06:03:46.463Z,101740.89
2019-05-30T06:04:30.361Z,101735.96
2019-05-30T06:05:14.198Z,101741.84
2019-05-30T06:05:58.225Z,101736.06
2019-05-30T06:06:41.745Z,101738.30
2019-05-30T06:07:24.807Z,101740.60
2019-05-30T06:08:08.513Z,101737.02
2019-05-30T06:08:52.475Z,101742.43
2019-05-30T06:09:35.545Z,101739.44
2019-05-30T06:10:19.574Z,101740.67
2019-05-30T06:11:03.207Z,101730.81
2019-05-30T06:11:48.985Z,101742.14
2019-05-30T06:12:30.885Z,101749.27
2019-05-30T06:13:14.791Z,101742.03
2019-05-30T06:13:57.373Z,101747.84
2019-05-30T06:14:41.044Z,101742.43
2019-05-30T06:15:24.987Z,101744.95
2019-05-30T06:16:07.848Z,101745.83
2019-05-30T06:16:51.345Z,101741.70
2019-05-30T06:17:34.581Z,101744.77
2019-05-30T06:18:18.134Z,101749.22
2019-05-30T06:19:01.731Z,101748.67
2019-05-30T06:19:46.825Z,101745.97
2019-05-30T06:20:29.333Z,101748.09
2019-05-30T06:21:12.723Z,101754.45
2019-05-30T06:21:56.225Z,101753.50
2019-05-30T06:22:38.931Z,101752.55
2019-05-30T06:23:22.181Z,101756.61
2019-05-30T06:24:05.640Z,101759.70
2019-05-30T06:24:48.256Z,101750.23
2019-05-30T06:25:32.915Z,101758.25
2019-05-30T06:26:17.678Z,101756.89
2019-05-30T06:27:00.812Z,101766.36
2019-05-30T06:27:44.388Z,101760.95
2019-05-30T06:28:28.303Z,101765.96
2019-05-30T06:29:11.636Z,101765.59
2019-05-30T06:29:55.507Z,101767.42
2019-05-30T06:30:39.121Z,101761.61
2019-05-30T06:31:22.488Z,101760.45
2019-05-30T06:32:06.198Z,101764.10
2019-05-30T06:32:49.729Z,101767.28
2019-05-30T06:33:32.885Z,101761.11
2019-05-30T06:34:30.338Z,101762.13
2019-05-30T06:35:01.802Z,101771.23
2019-05-30T06:35:44.846Z,101766.38
2019-05-30T06:36:29.319Z,101774.59
2019-05-30T06:37:13.017Z,101774.59
2019-05-30T06:37:55.878Z,101766.55
2019-05-30T06:38:39.221Z,101763.45
2019-05-30T06:39:23.448Z,101768.45
2019-05-30T06:40:06.645Z,101772.14
2019-05-30T06:40:50.615Z,101770.80
2019-05-30T06:41:34.433Z,101775.33
2019-05-30T06:42:17.593Z,101777.62
2019-05-30T06:43:01.599Z,101774.45
2019-05-30T06:43:45.261Z,101774.85
2019-05-30T06:44:28.425Z,101778.91
2019-05-30T06:45:12.036Z,101780.73
2019-05-30T06:45:55.887Z,101782.97
2019-05-30T06:46:38.696Z,101781.61
2019-05-30T06:47:22.664Z,101779.45
2019-05-30T06:48:06.685Z,101776.34
2019-05-30T06:48:49.633Z,101778.51
2019-05-30T06:49:33.385Z,101786.62
2019-05-30T06:50:16.945Z,101778.98
2019-05-30T06:51:00.204Z,101782.16
2019-05-30T06:51:43.452Z,101777.62
2019-05-30T06:52:27.343Z,101784.80
2019-05-30T06:53:10.462Z,101784.31
2019-05-30T06:53:54.535Z,101780.73
2019-05-30T06:54:38.149Z,101788.38
2019-05-30T06:55:21.411Z,101790.09
2019-05-30T06:56:05.520Z,101784.31
2019-05-30T06:56:49.169Z,101787.89
2019-05-30T06:57:32.318Z,101787.02
2019-05-30T06:58:15.948Z,101778.03
2019-05-30T06:59:00.101Z,101778.51
2019-05-30T06:59:42.671Z,101782.97
2019-05-30T07:00:26.437Z,101783.91
2019-05-30T07:01:10.111Z,101781.69
2019-05-30T07:01:53.406Z,101781.21
2019-05-30T07:02:37.180Z,101780.81
2019-05-30T07:03:21.983Z,101787.09
2019-05-30T07:04:05.305Z,101782.16
2019-05-30T07:04:52.179Z,101777.62
2019-05-30T07:05:35.298Z,101784.31
2019-05-30T07:06:18.704Z,101784.69
2019-05-30T07:07:05.734Z,101779.28
2019-05-30T07:07:48.042Z,101785.67
2019-05-30T07:08:31.281Z,101782.97
2019-05-30T07:09:14.647Z,101775.73
2019-05-30T07:09:58.111Z,101787.02
2019-05-30T07:10:40.741Z,101783.04
2019-05-30T07:11:24.766Z,101780.81
2019-05-30T07:12:11.953Z,101785.34
2019-05-30T07:12:53.897Z,101788.92
2019-05-30T07:13:37.419Z,101789.87
2019-05-30T07:14:21.017Z,101784.47
2019-05-30T07:15:09.739Z,101783.11
2019-05-30T07:15:53.559Z,101789.87
2019-05-30T07:16:37.350Z,101795.86
2019-05-30T07:17:20.596Z,101785.92
2019-05-30T07:18:04.274Z,101795.86
2019-05-30T07:18:47.719Z,101794.03
2019-05-30T07:19:31.684Z,101798.56
2019-05-30T07:20:15.620Z,101798.56
2019-05-30T07:20:59.285Z,101795.42
2019-05-30T07:21:42.163Z,101790.02
2019-05-30T07:22:25.836Z,101798.13
2019-05-30T07:23:09.511Z,101800.84
2019-05-30T07:23:52.782Z,101801.27
2019-05-30T07:24:36.415Z,101801.27
2019-05-30T07:25:20.351Z,101802.63
2019-05-30T07:26:03.729Z,101805.77
2019-05-30T07:26:47.889Z,101803.06
2019-05-30T07:27:32.033Z,101804.89
2019-05-30T07:28:15.203Z,101808.95
2019-05-30T07:29:00.768Z,101807.23
2019-05-30T07:29:44.320Z,101805.88
2019-05-30T07:30:27.952Z,101809.93
2019-05-30T07:31:11.593Z,101807.23
2019-05-30T07:31:55.026Z,101806.72
2019-05-30T07:32:37.963Z,101808.58
2019-05-30T07:33:21.439Z,101811.28
2019-05-30T07:34:05.236Z,101809.05
2019-05-30T07:34:48.293Z,101808.58
2019-05-30T07:35:32.247Z,101814.94
2019-05-30T07:36:15.750Z,101811.28
2019-05-30T07:36:58.964Z,101811.28
2019-05-30T07:37:46.387Z,101815.34
2019-05-30T07:38:28.397Z,101810.41
2019-05-30T07:39:12.135Z,101808.95
2019-05-30T07:39:55.864Z,101813.44
2019-05-30T07:40:39.537Z,101812.49
2019-05-30T07:41:22.465Z,101807.96
2019-05-30T07:42:06.925Z,101811.03
2019-05-30T07:42:50.313Z,101818.27
2019-05-30T07:43:33.616Z,101807.38
2019-05-30T07:44:17.432Z,101816.37
2019-05-30T07:45:00.994Z,101811.36
2019-05-30T07:45:51.733Z,101806.91
2019-05-30T07:46:29.600Z,101813.66
2019-05-30T07:47:12.954Z,101817.24
2019-05-30T07:47:55.868Z,101815.42
2019-05-30T07:48:39.414Z,101819.47
2019-05-30T07:49:23.148Z,101820.83
2019-05-30T07:50:07.596Z,101823.61
2019-05-30T07:50:51.368Z,101813.27
2019-05-30T07:51:35.225Z,101815.02
2019-05-30T07:52:18.577Z,101818.20
2019-05-30T07:53:02.037Z,101823.53
2019-05-30T07:53:45.794Z,101832.59
2019-05-30T07:54:29.049Z,101825.77
2019-05-30T07:55:12.513Z,101819.95
2019-05-30T07:55:56.446Z,101830.77
2019-05-30T07:56:39.796Z,101822.55
2019-05-30T07:57:23.800Z,101824.88
2019-05-30T07:58:07.715Z,101830.66
2019-05-30T07:58:50.842Z,101821.20
2019-05-30T07:59:35.976Z,101821.59
2019-05-30T08:00:19.561Z,101820.72
2019-05-30T08:01:02.064Z,101822.47
2019-05-30T08:01:45.545Z,101821.05
2019-05-30T08:02:29.594Z,101823.17
2019-05-30T08:03:12.402Z,101822.30
2019-05-30T08:03:55.938Z,101825.88
2019-05-30T08:04:39.434Z,101816.81
2019-05-30T08:05:24.863Z,101823.98
2019-05-30T08:06:08.392Z,101822.14
2019-05-30T08:06:51.551Z,101832.97
2019-05-30T08:07:35.068Z,101824.75
2019-05-30T08:08:18.640Z,101822.99
2019-05-30T08:09:01.982Z,101819.73
2019-05-30T08:09:45.141Z,101829.68
2019-05-30T08:10:29.815Z,101824.27
2019-05-30T08:11:16.488Z,101821.02
2019-05-30T08:11:59.709Z,101825.44
2019-05-30T08:12:49.878Z,101816.84
2019-05-30T08:13:33.720Z,101820.36
2019-05-30T08:14:16.866Z,101816.67
2019-05-30T08:15:00.741Z,101822.08
2019-05-30T08:15:44.820Z,101828.30
2019-05-30T08:16:29.088Z,101826.94
2019-05-30T08:17:12.690Z,101839.11
2019-05-30T08:17:56.169Z,101808.88
2019-05-30T08:18:39.287Z,101817.88
2019-05-30T08:19:23.012Z,101821.42
2019-05-30T08:20:10.250Z,101817.77
2019-05-30T08:20:53.265Z,101812.36
2019-05-30T08:21:37.963Z,101815.53
2019-05-30T08:22:21.833Z,101811.88
2019-05-30T08:23:04.950Z,101806.54